Conakry, Guinea
Current Conditions -  °F | °C
As of 2:00 PM on Thursday 18 Dec 2014 (Local Time) from GUCY Reporting Station
Haze Haze  
Wind Chill: 86°   Ceiling: 11000
Heat Index: 93°   Visibility: 3mi
Dew Point: 73°   Wind: 5mph
Humidity: 66%   Direction: 180°S
Pressure: 29.83"   Gusts: NA
Location:  9.55°N, 13.67°W
Report Text: GUCY 181400Z 18004KT 5000 HZ BKN110 30/23 Q1010 NOSIG
Loading
Personal Weather Stations






























Interactive Weather Map New forecast layout! Learn more

10-Day Weather Forecast

Advertisements
Track Severe Weather on mobile